createdAt,value
2018-01-05T00:01:20.539Z,99166.39
2018-01-05T00:03:47.105Z,99166.10
2018-01-05T00:06:13.527Z,99161.52
2018-01-05T00:08:39.955Z,99165.95
2018-01-05T00:11:06.502Z,99163.60
2018-01-05T00:13:32.907Z,99165.28
2018-01-05T00:15:59.427Z,99166.52
2018-01-05T00:18:25.869Z,99164.45
2018-01-05T00:20:52.279Z,99164.78
2018-01-05T00:23:18.668Z,99159.72
2018-01-05T00:25:45.099Z,99167.39
2018-01-05T00:28:11.611Z,99166.66
2018-01-05T00:30:38.009Z,99168.63
2018-01-05T00:33:04.411Z,99165.37
2018-01-05T00:35:30.964Z,99163.92
2018-01-05T00:37:57.422Z,99166.17
2018-01-05T00:40:23.911Z,99168.48
2018-01-05T00:42:50.358Z,99167.23
2018-01-05T00:45:16.727Z,99166.77
2018-01-05T00:47:43.123Z,99160.20
2018-01-05T00:50:09.581Z,99162.69
2018-01-05T00:52:35.956Z,99167.77
2018-01-05T00:55:02.399Z,99167.32
2018-01-05T00:57:28.828Z,99165.47
2018-01-05T00:59:55.239Z,99172.98
2018-01-05T01:02:21.644Z,99170.34
2018-01-05T01:04:48.147Z,99164.25
2018-01-05T01:07:14.573Z,99164.73
2018-01-05T01:09:40.976Z,99167.25
2018-01-05T01:12:07.437Z,99168.61
2018-01-05T01:14:33.846Z,99167.26
2018-01-05T01:17:00.324Z,99164.36
2018-01-05T01:19:26.657Z,99159.30
2018-01-05T01:21:53.063Z,99159.67
2018-01-05T01:24:19.572Z,99154.45
2018-01-05T01:26:46.000Z,99145.59
2018-01-05T01:29:12.469Z,99154.65
2018-01-05T01:31:38.912Z,99161.66
2018-01-05T01:34:05.376Z,99159.45
2018-01-05T01:36:31.856Z,99155.48
2018-01-05T01:38:58.344Z,99150.64
2018-01-05T01:41:24.775Z,99155.14
2018-01-05T01:43:51.215Z,99146.81
2018-01-05T01:46:17.695Z,99152.82
2018-01-05T01:48:49.285Z,99149.48
2018-01-05T01:51:15.717Z,99147.59
2018-01-05T01:53:42.168Z,99151.96
2018-01-05T01:56:08.736Z,99144.84
2018-01-05T01:58:35.123Z,99149.16
2018-01-05T02:01:01.576Z,99143.53
2018-01-05T02:03:27.980Z,99138.84
2018-01-05T02:05:54.418Z,99142.84
2018-01-05T02:08:20.853Z,99139.89
2018-01-05T02:10:47.292Z,99142.83
2018-01-05T02:13:13.704Z,99142.01
2018-01-05T02:15:40.101Z,99139.39
2018-01-05T02:18:06.491Z,99147.95
2018-01-05T02:20:32.933Z,99148.00
2018-01-05T02:22:59.344Z,99158.77
2018-01-05T02:25:25.768Z,99162.69
2018-01-05T02:27:52.143Z,99165.61
2018-01-05T02:30:18.597Z,99158.43
2018-01-05T02:32:45.013Z,99165.12
2018-01-05T02:35:11.435Z,99160.86
2018-01-05T02:37:37.851Z,99159.72
2018-01-05T02:40:04.279Z,99162.63
2018-01-05T02:42:30.796Z,99154.47
2018-01-05T02:44:57.301Z,99158.30
2018-01-05T02:47:23.723Z,99161.23
2018-01-05T02:49:50.136Z,99162.14
2018-01-05T02:52:16.609Z,99163.34
2018-01-05T02:54:43.007Z,99164.70
2018-01-05T02:57:09.392Z,99162.37
2018-01-05T02:59:35.795Z,99162.98
2018-01-05T03:02:02.231Z,99161.33
2018-01-05T03:04:28.691Z,99164.52
2018-01-05T03:06:55.123Z,99164.47
2018-01-05T03:09:21.588Z,99171.66
2018-01-05T03:11:48.039Z,99177.44
2018-01-05T03:14:14.499Z,99178.34
2018-01-05T03:16:40.955Z,99180.95
2018-01-05T03:19:07.347Z,99181.53
2018-01-05T03:21:33.815Z,99184.65
2018-01-05T03:24:00.236Z,99185.96
2018-01-05T03:26:26.631Z,99193.56
2018-01-05T03:28:53.055Z,99195.56
2018-01-05T03:31:19.437Z,99197.80
2018-01-05T03:33:45.963Z,99200.34
2018-01-05T03:36:12.363Z,99209.37
2018-01-05T03:38:38.761Z,99209.09
2018-01-05T03:41:05.163Z,99217.97
2018-01-05T03:43:31.654Z,99223.45
2018-01-05T03:45:58.033Z,99220.50
2018-01-05T03:48:24.432Z,99223.62
2018-01-05T03:50:50.900Z,99223.18
2018-01-05T03:53:17.320Z,99229.74
2018-01-05T03:55:43.746Z,99226.80
2018-01-05T03:58:10.204Z,99230.67
2018-01-05T04:00:38.408Z,99224.76
2018-01-05T04:03:04.884Z,99234.34
2018-01-05T04:05:31.357Z,99232.79
2018-01-05T04:07:57.718Z,99240.73
2018-01-05T04:10:24.137Z,99237.02
2018-01-05T04:12:50.604Z,99231.38
2018-01-05T04:15:17.059Z,99234.59
2018-01-05T04:17:43.535Z,99232.41
2018-01-05T04:20:09.916Z,99243.09
2018-01-05T04:22:36.532Z,99236.05
2018-01-05T04:25:03.076Z,99244.09
2018-01-05T04:27:29.568Z,99235.06
2018-01-05T04:29:56.038Z,99241.55
2018-01-05T04:32:22.435Z,99244.22
2018-01-05T04:34:48.844Z,99254.17
2018-01-05T04:37:15.359Z,99251.34
2018-01-05T04:39:41.937Z,99250.10
2018-01-05T04:42:08.454Z,99255.31
2018-01-05T04:44:34.852Z,99256.23
2018-01-05T04:47:01.196Z,99257.67
2018-01-05T04:49:27.700Z,99264.52
2018-01-05T04:51:54.035Z,99266.61
2018-01-05T04:54:20.431Z,99270.97
2018-01-05T04:56:46.816Z,99269.30
2018-01-05T04:59:13.160Z,99270.32
2018-01-05T05:01:39.710Z,99277.08
2018-01-05T05:04:06.163Z,99279.05
2018-01-05T05:06:32.527Z,99265.00
2018-01-05T05:08:58.901Z,99262.09
2018-01-05T05:11:25.219Z,99264.90
2018-01-05T05:13:51.571Z,99262.23
2018-01-05T05:16:17.876Z,99259.95
2018-01-05T05:18:44.347Z,99264.22
2018-01-05T05:21:10.728Z,99261.23
2018-01-05T05:23:37.059Z,99270.70
2018-01-05T05:26:03.483Z,99273.38
2018-01-05T05:28:29.866Z,99275.03
2018-01-05T05:30:56.204Z,99273.42
2018-01-05T05:33:22.603Z,99273.56
2018-01-05T05:35:49.040Z,99264.02
2018-01-05T05:38:15.326Z,99263.52
2018-01-05T05:40:41.755Z,99268.22
2018-01-05T05:43:08.188Z,99266.23
2018-01-05T05:45:34.553Z,99275.44
2018-01-05T05:48:00.987Z,99278.59
2018-01-05T05:50:27.448Z,99277.72
2018-01-05T05:52:53.789Z,99273.10
2018-01-05T05:55:20.333Z,99271.06
2018-01-05T05:57:46.664Z,99269.66
2018-01-05T06:00:13.091Z,99277.30
2018-01-05T06:02:39.580Z,99282.91
2018-01-05T06:05:06.022Z,99282.07
2018-01-05T06:07:32.416Z,99284.41
2018-01-05T06:09:58.870Z,99287.25
2018-01-05T06:12:25.188Z,99291.30
2018-01-05T06:14:51.575Z,99300.56
2018-01-05T06:17:17.966Z,99306.50
2018-01-05T06:19:44.330Z,99303.86
2018-01-05T06:22:10.703Z,99321.92
2018-01-05T06:24:37.123Z,99327.88
2018-01-05T06:27:03.523Z,99325.16
2018-01-05T06:29:29.879Z,99330.25
2018-01-05T06:31:56.276Z,99331.05
2018-01-05T06:34:22.690Z,99330.02
2018-01-05T06:36:49.038Z,99339.10
2018-01-05T06:39:15.384Z,99346.34
2018-01-05T06:41:41.888Z,99353.44
2018-01-05T06:44:08.252Z,99359.88
2018-01-05T06:46:34.608Z,99369.06
2018-01-05T06:49:00.963Z,99367.33
2018-01-05T06:51:27.272Z,99376.13
2018-01-05T06:53:53.800Z,99385.34
2018-01-05T06:56:20.252Z,99387.17
2018-01-05T06:58:46.616Z,99389.88
2018-01-05T07:01:12.987Z,99387.83
2018-01-05T07:03:39.480Z,99393.45
2018-01-05T07:06:05.880Z,99399.03
2018-01-05T07:08:32.240Z,99411.47
2018-01-05T07:10:58.629Z,99420.08
2018-01-05T07:13:24.984Z,99424.09
2018-01-05T07:15:51.328Z,99433.56
2018-01-05T07:18:17.748Z,99434.78
2018-01-05T07:20:44.077Z,99441.40
2018-01-05T07:23:10.640Z,99433.22
2018-01-05T07:25:37.004Z,99436.28
2018-01-05T07:28:03.366Z,99448.13
2018-01-05T07:30:29.750Z,99449.56
2018-01-05T07:32:56.183Z,99452.38
2018-01-05T07:35:22.600Z,99451.37
2018-01-05T07:37:49.202Z,99442.81
2018-01-05T07:40:15.615Z,99433.64
2018-01-05T07:42:41.999Z,99433.20
2018-01-05T07:45:08.416Z,99424.92
2018-01-05T07:47:34.820Z,99428.13
2018-01-05T07:50:01.204Z,99420.05
2018-01-05T07:52:27.565Z,99425.70
2018-01-05T07:54:53.948Z,99429.23
2018-01-05T07:57:20.296Z,99429.32
2018-01-05T07:59:46.680Z,99432.45
2018-01-05T08:02:13.069Z,99439.81
2018-01-05T08:04:39.408Z,99444.64
2018-01-05T08:07:05.783Z,99444.19
2018-01-05T08:09:32.160Z,99444.52
2018-01-05T08:11:59.087Z,99443.34
2018-01-05T08:14:25.759Z,99443.59
2018-01-05T08:16:52.125Z,99436.50
2018-01-05T08:19:18.507Z,99435.55
2018-01-05T08:21:44.868Z,99439.50
2018-01-05T08:24:11.284Z,99444.91
2018-01-05T08:26:37.639Z,99441.08
2018-01-05T08:29:04.044Z,99438.68
2018-01-05T08:31:30.415Z,99438.53
2018-01-05T08:33:56.716Z,99438.52
2018-01-05T08:36:23.115Z,99438.56
2018-01-05T08:38:49.507Z,99440.75
2018-01-05T08:41:15.863Z,99438.05
2018-01-05T08:43:42.482Z,99440.98
2018-01-05T08:46:08.797Z,99441.58
2018-01-05T08:48:35.661Z,99436.20
2018-01-05T08:51:02.211Z,99429.30
2018-01-05T08:53:28.606Z,99433.52
2018-01-05T08:55:54.935Z,99432.88
2018-01-05T08:58:21.257Z,99429.24
2018-01-05T09:00:47.646Z,99429.97
2018-01-05T09:03:13.976Z,99437.31
2018-01-05T09:05:40.429Z,99434.05
2018-01-05T09:08:07.002Z,99428.58
2018-01-05T09:10:33.339Z,99421.90
2018-01-05T09:12:59.862Z,99419.92
2018-01-05T09:15:26.304Z,99420.74
2018-01-05T09:17:52.616Z,99413.44
2018-01-05T09:20:18.988Z,99416.82
2018-01-05T09:22:45.367Z,99413.27
2018-01-05T09:25:11.715Z,99414.30
2018-01-05T09:27:38.194Z,99410.64
2018-01-05T09:30:04.577Z,99406.20
2018-01-05T09:32:30.930Z,99410.19
2018-01-05T09:34:57.336Z,99411.12
2018-01-05T09:37:23.692Z,99407.20
2018-01-05T09:39:50.143Z,99406.65
2018-01-05T09:42:16.624Z,99408.25
2018-01-05T09:44:43.029Z,99404.50
2018-01-05T09:47:09.417Z,99400.17
2018-01-05T09:49:35.850Z,99398.94
2018-01-05T09:52:02.224Z,99397.02
2018-01-05T09:54:28.551Z,99398.11
2018-01-05T09:56:54.898Z,99384.51
2018-01-05T09:59:21.252Z,99384.27
2018-01-05T10:01:47.613Z,99373.38
2018-01-05T10:04:14.066Z,99382.83
2018-01-05T10:06:40.572Z,99380.89
2018-01-05T10:09:06.956Z,99386.56
2018-01-05T10:11:33.379Z,99374.84
2018-01-05T10:13:59.820Z,99368.33
2018-01-05T10:16:26.316Z,99360.41
2018-01-05T10:18:53.277Z,99356.69
2018-01-05T10:21:19.644Z,99348.00
2018-01-05T10:23:45.933Z,99352.16
2018-01-05T10:26:12.400Z,99348.05
2018-01-05T10:28:38.826Z,99347.20
2018-01-05T10:31:05.140Z,99354.38
2018-01-05T10:33:31.552Z,99340.44
2018-01-05T10:35:57.908Z,99333.04
2018-01-05T10:38:24.609Z,99327.51
2018-01-05T10:40:51.144Z,99330.22
2018-01-05T10:43:17.440Z,99327.83
2018-01-05T10:45:43.859Z,99326.44
2018-01-05T10:48:10.388Z,99328.13
2018-01-05T10:50:36.732Z,99329.48
2018-01-05T10:53:03.125Z,99329.46
2018-01-05T10:55:29.481Z,99322.19
2018-01-05T10:57:55.846Z,99327.48
2018-01-05T11:00:22.263Z,99332.66
2018-01-05T11:02:48.659Z,99335.46
2018-01-05T11:05:15.032Z,99341.61
2018-01-05T11:07:41.452Z,99352.39
2018-01-05T11:10:07.840Z,99354.98
2018-01-05T11:12:34.189Z,99349.56
2018-01-05T11:15:00.520Z,99351.34
2018-01-05T11:17:26.892Z,99356.28
2018-01-05T11:19:53.272Z,99350.26
2018-01-05T11:22:19.650Z,99357.25
2018-01-05T11:24:45.983Z,99352.34
2018-01-05T11:27:12.383Z,99352.08
2018-01-05T11:29:38.771Z,99346.41
2018-01-05T11:32:05.153Z,99348.22
2018-01-05T11:34:31.470Z,99357.38
2018-01-05T11:36:57.806Z,99349.64
2018-01-05T11:39:24.271Z,99353.23
2018-01-05T11:41:50.652Z,99360.84
2018-01-05T11:44:16.975Z,99365.91
2018-01-05T11:46:43.369Z,99374.05
2018-01-05T11:49:09.692Z,99379.41
2018-01-05T11:51:36.032Z,99380.50
2018-01-05T11:54:02.431Z,99383.46
2018-01-05T11:56:28.823Z,99383.21
2018-01-05T11:58:55.183Z,99383.67
2018-01-05T12:01:21.652Z,99383.02
2018-01-05T12:03:48.138Z,99385.64
2018-01-05T12:06:14.500Z,99381.97
2018-01-05T12:08:40.977Z,99376.00
2018-01-05T12:11:07.368Z,99377.86
2018-01-05T12:13:33.796Z,99371.25
2018-01-05T12:16:00.280Z,99366.79
2018-01-05T12:18:26.647Z,99364.59
2018-01-05T12:20:53.100Z,99359.44
2018-01-05T12:23:19.566Z,99353.50
2018-01-05T12:25:45.964Z,99355.05
2018-01-05T12:28:12.371Z,99360.27
2018-01-05T12:30:38.808Z,99357.91
2018-01-05T12:33:05.233Z,99369.52
2018-01-05T12:35:31.699Z,99369.96
2018-01-05T12:37:58.244Z,99367.76
2018-01-05T12:40:24.660Z,99375.64
2018-01-05T12:42:51.027Z,99374.59
2018-01-05T12:45:17.531Z,99373.98
2018-01-05T12:47:44.061Z,99365.59
2018-01-05T12:50:10.533Z,99356.38
2018-01-05T12:52:36.987Z,99347.48
2018-01-05T12:55:03.543Z,99347.15
2018-01-05T12:57:30.030Z,99344.59
2018-01-05T12:59:56.488Z,99350.95
2018-01-05T13:02:22.897Z,99350.97
2018-01-05T13:04:49.434Z,99347.70
2018-01-05T13:07:15.926Z,99346.55
2018-01-05T13:09:42.388Z,99358.07
2018-01-05T13:12:08.831Z,99363.66
2018-01-05T13:14:35.420Z,99369.28
2018-01-05T13:17:01.972Z,99361.42
2018-01-05T13:19:28.468Z,99370.10
2018-01-05T13:21:55.073Z,99371.67
2018-01-05T13:24:21.501Z,99368.13
2018-01-05T13:26:48.059Z,99373.73
2018-01-05T13:29:14.564Z,99368.18
2018-01-05T13:31:41.190Z,99370.51
2018-01-05T13:34:07.615Z,99371.09
2018-01-05T13:36:34.090Z,99367.56
2018-01-05T13:39:00.567Z,99371.20
2018-01-05T13:41:26.980Z,99375.30
2018-01-05T13:43:53.436Z,99381.14
2018-01-05T13:46:19.820Z,99379.92
2018-01-05T13:48:46.227Z,99375.50
2018-01-05T13:51:12.676Z,99386.53
2018-01-05T13:53:39.092Z,99388.89
2018-01-05T13:56:05.663Z,99390.56
2018-01-05T13:58:32.126Z,99384.55
2018-01-05T14:00:58.611Z,99390.61
2018-01-05T14:03:25.034Z,99388.89
2018-01-05T14:05:51.477Z,99387.18
2018-01-05T14:08:18.122Z,99383.23
2018-01-05T14:10:44.535Z,99395.75
2018-01-05T14:13:10.996Z,99400.73
2018-01-05T14:15:37.406Z,99400.91
2018-01-05T14:18:03.820Z,99410.57
2018-01-05T14:20:31.434Z,99412.31
2018-01-05T14:22:57.856Z,99414.11
2018-01-05T14:25:24.546Z,99421.42
2018-01-05T14:27:51.033Z,99422.10
2018-01-05T14:30:17.464Z,99424.64
2018-01-05T14:32:44.054Z,99433.06
2018-01-05T14:35:10.545Z,99442.78
2018-01-05T14:37:37.057Z,99446.47
2018-01-05T14:40:03.800Z,99455.42
2018-01-05T14:42:30.220Z,99460.88
2018-01-05T14:44:56.652Z,99453.92
2018-01-05T14:47:23.111Z,99462.80
2018-01-05T14:49:49.528Z,99465.80
2018-01-05T14:52:16.017Z,99459.97
2018-01-05T14:54:43.380Z,99467.97
2018-01-05T14:57:09.868Z,99463.83
2018-01-05T14:59:36.407Z,99471.17
2018-01-05T15:02:03.007Z,99472.80
2018-01-05T15:04:29.557Z,99479.45
2018-01-05T15:06:56.045Z,99482.91
2018-01-05T15:09:22.432Z,99494.48
2018-01-05T15:11:49.024Z,99500.10
2018-01-05T15:14:15.438Z,99509.58
2018-01-05T15:16:41.789Z,99513.46
2018-01-05T15:19:08.213Z,99519.34
2018-01-05T15:21:34.638Z,99513.69
2018-01-05T15:24:01.155Z,99526.14
2018-01-05T15:26:27.684Z,99523.52
2018-01-05T15:28:54.175Z,99522.70
2018-01-05T15:31:20.828Z,99523.02
2018-01-05T15:33:47.368Z,99521.37
2018-01-05T15:36:13.782Z,99525.22
2018-01-05T15:38:40.231Z,99519.08
2018-01-05T15:41:06.760Z,99522.62
2018-01-05T15:43:33.177Z,99525.67
2018-01-05T15:45:59.771Z,99528.16
2018-01-05T15:48:26.260Z,99521.27
2018-01-05T15:50:52.675Z,99527.69
2018-01-05T15:53:19.232Z,99532.80
2018-01-05T15:55:45.712Z,99530.28
2018-01-05T15:58:12.145Z,99538.02
2018-01-05T16:00:38.568Z,99541.95
2018-01-05T16:03:05.115Z,99543.27
2018-01-05T16:05:31.536Z,99540.69
2018-01-05T16:07:57.927Z,99546.94
2018-01-05T16:10:24.388Z,99544.37
2018-01-05T16:12:50.949Z,99552.06
2018-01-05T16:15:17.356Z,99555.14
2018-01-05T16:17:43.844Z,99555.11
2018-01-05T16:20:10.296Z,99557.42
2018-01-05T16:22:36.724Z,99558.41
2018-01-05T16:25:03.187Z,99553.16
2018-01-05T16:27:29.630Z,99558.81
2018-01-05T16:29:56.018Z,99564.23
2018-01-05T16:32:22.488Z,99572.08
2018-01-05T16:34:48.936Z,99574.86
2018-01-05T16:37:15.360Z,99583.05
2018-01-05T16:39:41.783Z,99588.31
2018-01-05T16:42:08.164Z,99591.42
2018-01-05T16:44:34.591Z,99593.23
2018-01-05T16:47:01.064Z,99587.62
2018-01-05T16:49:27.472Z,99588.58
2018-01-05T16:51:57.048Z,99593.43
2018-01-05T16:54:23.540Z,99596.03
2018-01-05T16:56:49.988Z,99589.14
2018-01-05T16:59:16.387Z,99596.27
2018-01-05T17:01:42.888Z,99595.81
2018-01-05T17:04:09.345Z,99601.59
2018-01-05T17:06:35.761Z,99603.36
2018-01-05T17:09:02.316Z,99603.50
2018-01-05T17:11:28.776Z,99604.94
2018-01-05T17:13:55.228Z,99606.31
2018-01-05T17:16:21.647Z,99606.46
2018-01-05T17:18:48.057Z,99605.92
2018-01-05T17:21:14.467Z,99606.91
2018-01-05T17:23:40.908Z,99613.89
2018-01-05T17:26:07.300Z,99614.53
2018-01-05T17:28:33.709Z,99620.79
2018-01-05T17:31:00.149Z,99622.28
2018-01-05T17:33:26.494Z,99622.92
2018-01-05T17:35:52.912Z,99626.14
2018-01-05T17:38:19.426Z,99633.29
2018-01-05T17:40:45.860Z,99639.99
2018-01-05T17:43:12.375Z,99640.60
2018-01-05T17:45:38.828Z,99634.19
2018-01-05T17:48:05.384Z,99628.27
2018-01-05T17:50:31.828Z,99640.19
2018-01-05T17:52:58.309Z,99636.36
2018-01-05T17:55:24.716Z,99639.59
2018-01-05T17:57:51.136Z,99645.38
2018-01-05T18:00:17.909Z,99634.55
2018-01-05T18:02:44.667Z,99646.42
2018-01-05T18:05:11.489Z,99639.44
2018-01-05T18:07:38.091Z,99647.06
2018-01-05T18:10:04.612Z,99655.88
2018-01-05T18:12:31.293Z,99655.05
2018-01-05T18:14:57.756Z,99659.50
2018-01-05T18:17:24.572Z,99659.62
2018-01-05T18:19:51.084Z,99669.25
2018-01-05T18:22:18.087Z,99667.95
2018-01-05T18:24:44.543Z,99667.59
2018-01-05T18:27:11.162Z,99670.28
2018-01-05T18:29:38.017Z,99672.78
2018-01-05T18:32:04.714Z,99674.48
2018-01-05T18:34:31.353Z,99677.54
2018-01-05T18:36:58.181Z,99682.40
2018-01-05T18:39:24.673Z,99689.40
2018-01-05T18:41:51.356Z,99694.05
2018-01-05T18:44:18.552Z,99695.44
2018-01-05T18:46:45.296Z,99701.80
2018-01-05T18:49:12.068Z,99712.83
2018-01-05T18:51:38.834Z,99710.31
2018-01-05T18:54:05.264Z,99698.02
2018-01-05T18:56:31.776Z,99710.78
2018-01-05T18:58:58.219Z,99712.25
2018-01-05T19:01:24.691Z,99710.78
2018-01-05T19:03:51.138Z,99710.26
2018-01-05T19:06:17.596Z,99719.44
2018-01-05T19:08:44.456Z,99723.34
2018-01-05T19:11:10.916Z,99722.23
2018-01-05T19:13:37.376Z,99725.81
2018-01-05T19:16:03.755Z,99733.14
2018-01-05T19:18:30.174Z,99730.58
2018-01-05T19:20:56.607Z,99734.97
2018-01-05T19:23:23.061Z,99736.52
2018-01-05T19:25:49.429Z,99731.13
2018-01-05T19:28:15.903Z,99729.03
2018-01-05T19:30:42.302Z,99721.98
2018-01-05T19:33:08.747Z,99725.03
2018-01-05T19:35:35.176Z,99729.11
2018-01-05T19:38:01.660Z,99726.92
2018-01-05T19:40:28.109Z,99728.44
2018-01-05T19:42:54.530Z,99728.58
2018-01-05T19:45:20.957Z,99726.87
2018-01-05T19:47:47.452Z,99727.02
2018-01-05T19:50:15.196Z,99725.97
2018-01-05T19:52:41.648Z,99727.00
2018-01-05T19:55:08.045Z,99730.66
2018-01-05T19:57:34.540Z,99736.31
2018-01-05T20:00:00.908Z,99737.46
2018-01-05T20:02:27.283Z,99744.00
2018-01-05T20:04:53.807Z,99748.98
2018-01-05T20:07:20.173Z,99751.88
2018-01-05T20:09:46.703Z,99749.49
2018-01-05T20:12:13.254Z,99755.42
2018-01-05T20:14:39.643Z,99753.17
2018-01-05T20:17:06.096Z,99757.53
2018-01-05T20:19:32.536Z,99775.64
2018-01-05T20:22:00.245Z,99780.89
2018-01-05T20:24:26.854Z,99785.06
2018-01-05T20:26:53.292Z,99777.11
2018-01-05T20:29:20.006Z,99783.45
2018-01-05T20:31:46.535Z,99781.18
2018-01-05T20:34:13.866Z,99784.64
2018-01-05T20:36:40.769Z,99787.37
2018-01-05T20:39:07.348Z,99786.31
2018-01-05T20:41:33.835Z,99787.63
2018-01-05T20:44:00.218Z,99784.81
2018-01-05T20:46:27.532Z,99790.77
2018-01-05T20:48:54.327Z,99786.14
2018-01-05T20:51:20.745Z,99781.30
2018-01-05T20:53:47.279Z,99775.52
2018-01-05T20:56:13.716Z,99778.91
2018-01-05T20:58:40.120Z,99782.48
2018-01-05T21:01:06.612Z,99781.16
2018-01-05T21:03:33.139Z,99789.49
2018-01-05T21:05:59.811Z,99791.89
2018-01-05T21:08:26.263Z,99797.50
2018-01-05T21:10:52.695Z,99802.80
2018-01-05T21:13:19.208Z,99806.73
2018-01-05T21:15:45.588Z,99808.92
2018-01-05T21:18:12.065Z,99810.98
2018-01-05T21:20:38.511Z,99812.21
2018-01-05T21:23:04.977Z,99811.97
2018-01-05T21:25:31.432Z,99822.90
2018-01-05T21:27:58.653Z,99819.53
2018-01-05T21:30:25.216Z,99814.92
2018-01-05T21:32:53.490Z,99810.34
2018-01-05T21:35:20.232Z,99808.00
2018-01-05T21:37:46.720Z,99809.56
2018-01-05T21:40:13.132Z,99813.14
2018-01-05T21:42:39.635Z,99808.90
2018-01-05T21:45:05.989Z,99800.41
2018-01-05T21:47:32.414Z,99800.17
2018-01-05T21:49:58.761Z,99802.27
2018-01-05T21:52:25.233Z,99798.31
2018-01-05T21:54:51.632Z,99794.07
2018-01-05T21:57:18.028Z,99798.89
2018-01-05T21:59:44.464Z,99801.09
2018-01-05T22:02:11.200Z,99794.41
2018-01-05T22:04:37.567Z,99795.70
2018-01-05T22:07:04.017Z,99796.16
2018-01-05T22:09:30.484Z,99801.32
2018-01-05T22:11:57.128Z,99797.91
2018-01-05T22:14:23.508Z,99798.97
2018-01-05T22:16:49.935Z,99794.84
2018-01-05T22:19:16.336Z,99797.67
2018-01-05T22:21:43.647Z,99799.04
2018-01-05T22:24:10.071Z,99798.03
2018-01-05T22:26:36.439Z,99799.89
2018-01-05T22:29:02.799Z,99809.50
2018-01-05T22:31:29.236Z,99808.14
2018-01-05T22:33:55.687Z,99810.05
2018-01-05T22:36:22.096Z,99806.55
2018-01-05T22:38:48.592Z,99813.06
2018-01-05T22:41:15.027Z,99816.91
2018-01-05T22:43:41.419Z,99824.75
2018-01-05T22:46:07.835Z,99828.81
2018-01-05T22:48:34.279Z,99826.42
2018-01-05T22:51:00.660Z,99826.41
2018-01-05T22:53:27.096Z,99825.78
2018-01-05T22:55:53.556Z,99825.41
2018-01-05T22:58:19.967Z,99834.56
2018-01-05T23:00:46.436Z,99829.61
2018-01-05T23:03:12.827Z,99834.48
2018-01-05T23:05:39.269Z,99837.25
2018-01-05T23:08:05.728Z,99837.30
2018-01-05T23:10:32.168Z,99833.31
2018-01-05T23:12:58.596Z,99836.16
2018-01-05T23:15:25.040Z,99838.89
2018-01-05T23:17:51.432Z,99852.55
2018-01-05T23:20:17.853Z,99854.27
2018-01-05T23:22:44.256Z,99854.63
2018-01-05T23:25:10.652Z,99857.14
2018-01-05T23:27:37.043Z,99857.42
2018-01-05T23:30:03.553Z,99850.39
2018-01-05T23:32:30.006Z,99855.13
2018-01-05T23:34:56.566Z,99851.27
2018-01-05T23:37:22.951Z,99852.15
2018-01-05T23:39:49.379Z,99854.08
2018-01-05T23:42:15.723Z,99853.16
2018-01-05T23:44:42.160Z,99850.55
2018-01-05T23:47:08.616Z,99847.66
2018-01-05T23:49:34.965Z,99843.52
2018-01-05T23:52:01.434Z,99840.13
2018-01-05T23:54:27.827Z,99844.77
2018-01-05T23:56:54.281Z,99844.58
2018-01-05T23:59:20.672Z,99852.90
